Mount Vernon, Virginia
Current Conditions -  °F | °C
As of 1:58 PM on Thursday 23 Oct 2014 (Local Time) from KDAA Reporting Station
Scattered Clouds Scattered Clouds  
Wind Chill: 63°   Ceiling: Unl
Heat Index: 63°   Visibility: 10mi
Dew Point: 45°   Wind: 10mph
Humidity: 52%   Direction: 320°NW
Pressure: 29.87"   Gusts: 18mph
Location:  38.71°N, 77.08°W
Report Text: KDAA 231758Z AUTO 32009G16KT 10SM SCT046 17/07 A2987 RMK AO2 PK WND 33029/25 SLP118 T01730073 10178 20120 58011
Loading
Personal Weather Stations






























Interactive Weather Map
Tropical Storm Tracking
New forecast layout! Learn more

10-Day Weather Forecast

Advertisements
Track Severe Weather on mobile